sensor_id;sensor_type;location;lat;lon;timestamp;pressure;altitude;pressure_sealevel;temperature;humidity
72096;BME280;59968;51.084;16.748;2023-05-12T00:00:29;100350.38;;;14.13;47.10
72096;BME280;59968;51.084;16.748;2023-05-12T00:03:11;100347.79;;;14.10;47.09
72096;BME280;59968;51.084;16.748;2023-05-12T00:05:41;100345.77;;;14.08;47.11
72096;BME280;59968;51.084;16.748;2023-05-12T00:08:12;100345.73;;;14.05;47.20
72096;BME280;59968;51.084;16.748;2023-05-12T00:10:42;100347.31;;;14.03;47.37
72096;BME280;59968;51.084;16.748;2023-05-12T00:13:18;100349.17;;;14.00;47.25
72096;BME280;59968;51.084;16.748;2023-05-12T00:15:52;100347.22;;;13.98;47.34
72096;BME280;59968;51.084;16.748;2023-05-12T00:18:34;100346.60;;;13.95;47.55
72096;BME280;59968;51.084;16.748;2023-05-12T00:21:07;100347.06;;;13.92;47.48
72096;BME280;59968;51.084;16.748;2023-05-12T00:23:37;100346.79;;;13.89;47.60
72096;BME280;59968;51.084;16.748;2023-05-12T00:26:08;100346.70;;;13.86;47.83
72096;BME280;59968;51.084;16.748;2023-05-12T00:28:38;100347.83;;;13.83;47.88
72096;BME280;59968;51.084;16.748;2023-05-12T00:31:09;100345.84;;;13.80;47.91
72096;BME280;59968;51.084;16.748;2023-05-12T00:33:42;100346.66;;;13.76;47.87
72096;BME280;59968;51.084;16.748;2023-05-12T00:36:12;100351.14;;;13.73;47.89
72096;BME280;59968;51.084;16.748;2023-05-12T00:38:43;100357.23;;;13.70;48.05
72096;BME280;59968;51.084;16.748;2023-05-12T00:41:14;100356.41;;;13.67;48.12
72096;BME280;59968;51.084;16.748;2023-05-12T00:43:45;100356.65;;;13.64;48.19
72096;BME280;59968;51.084;16.748;2023-05-12T00:46:16;100357.12;;;13.59;48.27
72096;BME280;59968;51.084;16.748;2023-05-12T00:48:50;100357.55;;;13.55;48.21
72096;BME280;59968;51.084;16.748;2023-05-12T00:51:23;100356.08;;;13.51;48.41
72096;BME280;59968;51.084;16.748;2023-05-12T00:53:57;100355.41;;;13.47;48.42
72096;BME280;59968;51.084;16.748;2023-05-12T00:56:28;100357.10;;;13.44;48.46
72096;BME280;59968;51.084;16.748;2023-05-12T00:59:05;100362.84;;;13.41;48.63
72096;BME280;59968;51.084;16.748;2023-05-12T01:01:41;100357.48;;;13.39;48.65
72096;BME280;59968;51.084;16.748;2023-05-12T01:04:12;100359.89;;;13.35;48.61
72096;BME280;59968;51.084;16.748;2023-05-12T01:07:05;100363.33;;;13.32;48.73
72096;BME280;59968;51.084;16.748;2023-05-12T01:09:39;100363.13;;;13.28;48.70
72096;BME280;59968;51.084;16.748;2023-05-12T01:12:10;100362.48;;;13.25;48.88
72096;BME280;59968;51.084;16.748;2023-05-12T01:14:41;100360.54;;;13.21;49.07
72096;BME280;59968;51.084;16.748;2023-05-12T01:17:11;100363.11;;;13.18;49.13
72096;BME280;59968;51.084;16.748;2023-05-12T01:19:55;100359.19;;;13.14;49.22
72096;BME280;59968;51.084;16.748;2023-05-12T01:22:30;100361.67;;;13.09;49.26
72096;BME280;59968;51.084;16.748;2023-05-12T01:25:07;100363.55;;;13.05;49.33
72096;BME280;59968;51.084;16.748;2023-05-12T01:27:42;100363.95;;;13.01;49.49
72096;BME280;59968;51.084;16.748;2023-05-12T01:30:17;100360.98;;;12.97;49.60
72096;BME280;59968;51.084;16.748;2023-05-12T01:32:49;100363.52;;;12.94;49.77
72096;BME280;59968;51.084;16.748;2023-05-12T01:35:20;100355.36;;;12.85;49.84
72096;BME280;59968;51.084;16.748;2023-05-12T01:38:00;100367.38;;;12.88;49.88
72096;BME280;59968;51.084;16.748;2023-05-12T01:40:37;100364.17;;;12.85;50.00
72096;BME280;59968;51.084;16.748;2023-05-12T01:43:08;100367.27;;;12.81;50.11
72096;BME280;59968;51.084;16.748;2023-05-12T01:45:39;100366.86;;;12.76;50.24
72096;BME280;59968;51.084;16.748;2023-05-12T01:48:09;100370.71;;;12.72;50.39
72096;BME280;59968;51.084;16.748;2023-05-12T01:50:42;100366.75;;;12.68;50.46
72096;BME280;59968;51.084;16.748;2023-05-12T01:53:17;100370.31;;;12.65;50.51
72096;BME280;59968;51.084;16.748;2023-05-12T01:55:47;100371.66;;;12.63;50.69
72096;BME280;59968;51.084;16.748;2023-05-12T01:58:18;100372.31;;;12.59;50.81
72096;BME280;59968;51.084;16.748;2023-05-12T02:00:49;100370.31;;;12.55;50.91
72096;BME280;59968;51.084;16.748;2023-05-12T02:03:20;100370.22;;;12.49;51.03
72096;BME280;59968;51.084;16.748;2023-05-12T02:05:50;100368.23;;;12.44;51.21
72096;BME280;59968;51.084;16.748;2023-05-12T02:08:21;100371.21;;;12.40;51.29
72096;BME280;59968;51.084;16.748;2023-05-12T02:11:06;100369.77;;;12.36;51.40
72096;BME280;59968;51.084;16.748;2023-05-12T02:13:39;100368.32;;;12.32;51.48
72096;BME280;59968;51.084;16.748;2023-05-12T02:16:10;100368.29;;;12.29;51.70
72096;BME280;59968;51.084;16.748;2023-05-12T02:18:46;100370.29;;;12.27;51.81
72096;BME280;59968;51.084;16.748;2023-05-12T02:21:16;100371.00;;;12.24;51.83
72096;BME280;59968;51.084;16.748;2023-05-12T02:23:47;100375.35;;;12.21;51.92
72096;BME280;59968;51.084;16.748;2023-05-12T02:26:18;100366.77;;;12.12;52.01
72096;BME280;59968;51.084;16.748;2023-05-12T02:28:49;100376.65;;;12.13;52.08
72096;BME280;59968;51.084;16.748;2023-05-12T02:31:25;100378.81;;;12.09;52.18
72096;BME280;59968;51.084;16.748;2023-05-12T02:33:56;100376.36;;;12.06;52.23
72096;BME280;59968;51.084;16.748;2023-05-12T02:36:27;100376.35;;;12.02;52.37
72096;BME280;59968;51.084;16.748;2023-05-12T02:38:58;100380.34;;;11.99;52.43
72096;BME280;59968;51.084;16.748;2023-05-12T02:41:29;100382.58;;;11.96;52.53
72096;BME280;59968;51.084;16.748;2023-05-12T02:44:02;100383.45;;;11.94;52.65
72096;BME280;59968;51.084;16.748;2023-05-12T02:46:33;100382.63;;;11.89;52.77
72096;BME280;59968;51.084;16.748;2023-05-12T02:49:03;100382.06;;;11.87;52.76
72096;BME280;59968;51.084;16.748;2023-05-12T02:51:34;100381.47;;;11.85;52.86
72096;BME280;59968;51.084;16.748;2023-05-12T02:54:05;100384.25;;;11.82;52.94
72096;BME280;59968;51.084;16.748;2023-05-12T02:56:35;100380.80;;;11.79;53.01
72096;BME280;59968;51.084;16.748;2023-05-12T02:59:05;100379.58;;;11.77;53.10
72096;BME280;59968;51.084;16.748;2023-05-12T03:01:39;100381.53;;;11.74;53.24
72096;BME280;59968;51.084;16.748;2023-05-12T03:04:10;100385.31;;;11.71;53.30
72096;BME280;59968;51.084;16.748;2023-05-12T03:06:41;100385.11;;;11.69;53.32
72096;BME280;59968;51.084;16.748;2023-05-12T03:09:14;100386.55;;;11.68;53.39
72096;BME280;59968;51.084;16.748;2023-05-12T03:11:46;100385.15;;;11.66;53.38
72096;BME280;59968;51.084;16.748;2023-05-12T03:14:19;100383.83;;;11.65;53.50
72096;BME280;59968;51.084;16.748;2023-05-12T03:16:50;100386.77;;;11.63;53.64
72096;BME280;59968;51.084;16.748;2023-05-12T03:19:20;100383.09;;;11.60;53.72
72096;BME280;59968;51.084;16.748;2023-05-12T03:21:51;100387.43;;;11.58;53.76
72096;BME280;59968;51.084;16.748;2023-05-12T03:24:21;100385.50;;;11.55;53.87
72096;BME280;59968;51.084;16.748;2023-05-12T03:26:54;100386.55;;;11.54;53.92
72096;BME280;59968;51.084;16.748;2023-05-12T03:29:31;100384.70;;;11.53;53.94
72096;BME280;59968;51.084;16.748;2023-05-12T03:32:02;100387.05;;;11.52;54.06
72096;BME280;59968;51.084;16.748;2023-05-12T03:34:33;100391.30;;;11.51;54.13
72096;BME280;59968;51.084;16.748;2023-05-12T03:37:07;100391.45;;;11.51;54.15
72096;BME280;59968;51.084;16.748;2023-05-12T03:39:40;100391.23;;;11.52;54.33
72096;BME280;59968;51.084;16.748;2023-05-12T03:42:15;100394.40;;;11.51;54.27
72096;BME280;59968;51.084;16.748;2023-05-12T03:44:50;100398.24;;;11.52;54.30
72096;BME280;59968;51.084;16.748;2023-05-12T03:47:23;100396.46;;;11.55;54.36
72096;BME280;59968;51.084;16.748;2023-05-12T03:49:57;100399.84;;;11.59;54.42
72096;BME280;59968;51.084;16.748;2023-05-12T03:52:27;100405.59;;;11.60;54.40
72096;BME280;59968;51.084;16.748;2023-05-12T03:55:04;100409.77;;;11.65;54.38
72096;BME280;59968;51.084;16.748;2023-05-12T03:57:35;100410.23;;;11.74;54.38
72096;BME280;59968;51.084;16.748;2023-05-12T04:00:10;100412.89;;;11.84;54.25
72096;BME280;59968;51.084;16.748;2023-05-12T04:02:46;100412.05;;;11.97;54.24
72096;BME280;59968;51.084;16.748;2023-05-12T04:05:21;100412.33;;;12.10;54.09
72096;BME280;59968;51.084;16.748;2023-05-12T04:07:52;100412.40;;;12.23;53.92
72096;BME280;59968;51.084;16.748;2023-05-12T04:10:25;100408.35;;;12.37;53.68
72096;BME280;59968;51.084;16.748;2023-05-12T04:12:58;100410.45;;;12.50;53.62
72096;BME280;59968;51.084;16.748;2023-05-12T04:15:28;100410.25;;;12.61;53.29
72096;BME280;59968;51.084;16.748;2023-05-12T04:18:04;100409.63;;;12.72;53.17
72096;BME280;59968;51.084;16.748;2023-05-12T04:20:43;100410.79;;;12.84;52.95
72096;BME280;59968;51.084;16.748;2023-05-12T04:23:19;100415.35;;;12.95;52.75
72096;BME280;59968;51.084;16.748;2023-05-12T04:25:50;100421.41;;;13.08;52.57
72096;BME280;59968;51.084;16.748;2023-05-12T04:28:31;100424.77;;;13.20;52.52
72096;BME280;59968;51.084;16.748;2023-05-12T04:31:06;100425.63;;;13.33;52.27
72096;BME280;59968;51.084;16.748;2023-05-12T04:33:36;100426.41;;;13.43;52.30
72096;BME280;59968;51.084;16.748;2023-05-12T04:36:18;100427.48;;;13.53;52.22
72096;BME280;59968;51.084;16.748;2023-05-12T04:38:59;100429.52;;;13.64;51.99
72096;BME280;59968;51.084;16.748;2023-05-12T04:41:53;100428.77;;;13.73;51.78
72096;BME280;59968;51.084;16.748;2023-05-12T04:44:33;100431.48;;;13.86;51.81
72096;BME280;59968;51.084;16.748;2023-05-12T04:47:05;100435.11;;;13.99;51.91
72096;BME280;59968;51.084;16.748;2023-05-12T04:49:50;100433.62;;;14.10;51.56
72096;BME280;59968;51.084;16.748;2023-05-12T04:52:24;100429.55;;;14.21;51.43
72096;BME280;59968;51.084;16.748;2023-05-12T04:55:03;100430.23;;;14.33;51.30
72096;BME280;59968;51.084;16.748;2023-05-12T04:57:35;100433.40;;;14.48;51.03
72096;BME280;59968;51.084;16.748;2023-05-12T05:00:14;100440.16;;;14.62;50.58
72096;BME280;59968;51.084;16.748;2023-05-12T05:02:48;100436.10;;;14.75;50.01
72096;BME280;59968;51.084;16.748;2023-05-12T05:05:21;100435.73;;;14.88;49.93
72096;BME280;59968;51.084;16.748;2023-05-12T05:07:54;100438.48;;;15.04;49.77
72096;BME280;59968;51.084;16.748;2023-05-12T05:10:27;100440.44;;;15.17;49.13
72096;BME280;59968;51.084;16.748;2023-05-12T05:13:02;100443.61;;;15.30;48.74
72096;BME280;59968;51.084;16.748;2023-05-12T05:15:31;100441.70;;;15.38;48.57
72096;BME280;59968;51.084;16.748;2023-05-12T05:18:00;100442.70;;;15.56;48.33
72096;BME280;59968;51.084;16.748;2023-05-12T05:20:41;100442.31;;;15.68;47.75
72096;BME280;59968;51.084;16.748;2023-05-12T05:23:25;100447.73;;;15.79;47.71
72096;BME280;59968;51.084;16.748;2023-05-12T05:26:01;100447.84;;;15.92;47.67
72096;BME280;59968;51.084;16.748;2023-05-12T05:28:30;100444.11;;;16.03;47.26
72096;BME280;59968;51.084;16.748;2023-05-12T05:31:00;100446.05;;;16.12;47.04
72096;BME280;59968;51.084;16.748;2023-05-12T05:33:29;100442.58;;;16.22;46.50
72096;BME280;59968;51.084;16.748;2023-05-12T05:36:09;100443.77;;;16.27;46.14
72096;BME280;59968;51.084;16.748;2023-05-12T05:38:41;100444.01;;;16.32;45.84
72096;BME280;59968;51.084;16.748;2023-05-12T05:41:12;100447.64;;;16.37;45.90
72096;BME280;59968;51.084;16.748;2023-05-12T05:43:40;100446.20;;;16.45;45.81
72096;BME280;59968;51.084;16.748;2023-05-12T05:46:11;100447.30;;;16.52;45.84
72096;BME280;59968;51.084;16.748;2023-05-12T05:48:42;100447.03;;;16.59;45.55
72096;BME280;59968;51.084;16.748;2023-05-12T05:51:12;100449.95;;;16.65;45.34
72096;BME280;59968;51.084;16.748;2023-05-12T05:53:44;100448.21;;;16.73;45.33
72096;BME280;59968;51.084;16.748;2023-05-12T05:58:55;100450.36;;;16.93;45.10
72096;BME280;59968;51.084;16.748;2023-05-12T06:01:25;100450.44;;;17.03;44.96
72096;BME280;59968;51.084;16.748;2023-05-12T06:03:54;100454.44;;;17.12;44.67
72096;BME280;59968;51.084;16.748;2023-05-12T06:06:24;100452.77;;;17.22;44.04
72096;BME280;59968;51.084;16.748;2023-05-12T06:08:57;100455.80;;;17.31;43.88
72096;BME280;59968;51.084;16.748;2023-05-12T06:11:27;100456.80;;;17.41;43.96
72096;BME280;59968;51.084;16.748;2023-05-12T06:13:59;100455.10;;;17.51;43.92
72096;BME280;59968;51.084;16.748;2023-05-12T06:16:31;100458.46;;;17.61;43.93
72096;BME280;59968;51.084;16.748;2023-05-12T06:19:01;100459.61;;;17.71;43.82
72096;BME280;59968;51.084;16.748;2023-05-12T06:21:33;100459.41;;;17.79;43.14
72096;BME280;59968;51.084;16.748;2023-05-12T06:24:02;100460.71;;;17.84;42.66
72096;BME280;59968;51.084;16.748;2023-05-12T06:26:31;100459.52;;;17.87;42.46
72096;BME280;59968;51.084;16.748;2023-05-12T06:28:59;100457.91;;;17.93;42.98
72096;BME280;59968;51.084;16.748;2023-05-12T06:31:28;100458.91;;;18.04;43.11
72096;BME280;59968;51.084;16.748;2023-05-12T06:33:57;100453.95;;;18.09;42.78
72096;BME280;59968;51.084;16.748;2023-05-12T06:36:26;100465.22;;;18.21;42.35
72096;BME280;59968;51.084;16.748;2023-05-12T06:38:56;100464.56;;;18.28;42.62
72096;BME280;59968;51.084;16.748;2023-05-12T06:41:24;100470.65;;;18.40;42.72
72096;BME280;59968;51.084;16.748;2023-05-12T06:43:53;100466.48;;;18.48;41.99
72096;BME280;59968;51.084;16.748;2023-05-12T06:46:27;100466.36;;;18.56;42.04
72096;BME280;59968;51.084;16.748;2023-05-12T06:48:59;100466.98;;;18.68;42.37
72096;BME280;59968;51.084;16.748;2023-05-12T06:51:32;100467.58;;;18.82;42.03
72096;BME280;59968;51.084;16.748;2023-05-12T06:54:02;100466.37;;;18.93;42.12
72096;BME280;59968;51.084;16.748;2023-05-12T06:56:31;100470.16;;;19.03;41.80
72096;BME280;59968;51.084;16.748;2023-05-12T06:59:01;100468.81;;;19.07;41.23
72096;BME280;59968;51.084;16.748;2023-05-12T07:01:31;100469.29;;;19.11;41.04
72096;BME280;59968;51.084;16.748;2023-05-12T07:04:01;100464.09;;;19.15;41.00
72096;BME280;59968;51.084;16.748;2023-05-12T07:06:29;100466.66;;;19.21;40.93
72096;BME280;59968;51.084;16.748;2023-05-12T07:08:59;100465.02;;;19.24;40.61
72096;BME280;59968;51.084;16.748;2023-05-12T07:11:32;100468.08;;;19.29;40.78
72096;BME280;59968;51.084;16.748;2023-05-12T07:14:00;100465.58;;;19.37;40.59
72096;BME280;59968;51.084;16.748;2023-05-12T07:16:29;100465.38;;;19.44;40.50
72096;BME280;59968;51.084;16.748;2023-05-12T07:18:58;100462.86;;;19.53;40.59
72096;BME280;59968;51.084;16.748;2023-05-12T07:21:29;100467.72;;;19.63;40.85
72096;BME280;59968;51.084;16.748;2023-05-12T07:23:58;100469.98;;;19.76;40.50
72096;BME280;59968;51.084;16.748;2023-05-12T07:26:28;100469.52;;;19.85;40.07
72096;BME280;59968;51.084;16.748;2023-05-12T07:28:57;100473.05;;;19.93;39.65
72096;BME280;59968;51.084;16.748;2023-05-12T07:31:28;100471.46;;;19.97;39.71
72096;BME280;59968;51.084;16.748;2023-05-12T07:33:57;100469.97;;;20.00;39.77
72096;BME280;59968;51.084;16.748;2023-05-12T07:36:27;100469.30;;;20.06;39.57
72096;BME280;59968;51.084;16.748;2023-05-12T07:38:57;100468.06;;;20.10;39.70
72096;BME280;59968;51.084;16.748;2023-05-12T07:41:26;100473.16;;;20.18;39.63
72096;BME280;59968;51.084;16.748;2023-05-12T07:43:56;100470.87;;;20.28;39.51
72096;BME280;59968;51.084;16.748;2023-05-12T07:46:24;100477.13;;;20.37;39.57
72096;BME280;59968;51.084;16.748;2023-05-12T07:48:56;100476.45;;;20.44;39.18
72096;BME280;59968;51.084;16.748;2023-05-12T07:51:24;100476.23;;;20.53;39.53
72096;BME280;59968;51.084;16.748;2023-05-12T07:53:54;100475.33;;;20.65;39.16
72096;BME280;59968;51.084;16.748;2023-05-12T07:56:24;100474.27;;;20.75;38.81
72096;BME280;59968;51.084;16.748;2023-05-12T07:58:52;100474.84;;;20.81;38.80
72096;BME280;59968;51.084;16.748;2023-05-12T08:01:21;100472.16;;;20.87;39.09
72096;BME280;59968;51.084;16.748;2023-05-12T08:03:52;100469.60;;;20.98;38.89
72096;BME280;59968;51.084;16.748;2023-05-12T08:06:21;100473.09;;;21.10;38.31
72096;BME280;59968;51.084;16.748;2023-05-12T08:08:49;100471.89;;;21.20;38.36
72096;BME280;59968;51.084;16.748;2023-05-12T08:11:18;100470.55;;;21.26;38.38
72096;BME280;59968;51.084;16.748;2023-05-12T08:13:46;100467.94;;;21.39;38.50
72096;BME280;59968;51.084;16.748;2023-05-12T08:16:15;100469.43;;;21.53;38.57
72096;BME280;59968;51.084;16.748;2023-05-12T08:18:44;100467.70;;;21.64;37.46
72096;BME280;59968;51.084;16.748;2023-05-12T08:21:13;100470.73;;;21.72;37.25
72096;BME280;59968;51.084;16.748;2023-05-12T08:23:42;100473.73;;;21.81;37.04
72096;BME280;59968;51.084;16.748;2023-05-12T08:26:12;100469.63;;;21.91;37.44
72096;BME280;59968;51.084;16.748;2023-05-12T08:28:41;100474.20;;;22.00;37.14
72096;BME280;59968;51.084;16.748;2023-05-12T08:31:09;100474.11;;;22.05;37.20
72096;BME280;59968;51.084;16.748;2023-05-12T08:33:38;100476.15;;;22.12;36.92
72096;BME280;59968;51.084;16.748;2023-05-12T08:36:07;100475.16;;;22.19;36.56
72096;BME280;59968;51.084;16.748;2023-05-12T08:38:35;100471.69;;;22.27;36.45
72096;BME280;59968;51.084;16.748;2023-05-12T08:41:11;100469.74;;;22.35;36.11
72096;BME280;59968;51.084;16.748;2023-05-12T08:43:44;100467.96;;;22.42;35.91
72096;BME280;59968;51.084;16.748;2023-05-12T08:46:14;100470.04;;;22.55;36.21
72096;BME280;59968;51.084;16.748;2023-05-12T08:48:44;100474.08;;;22.64;35.84
72096;BME280;59968;51.084;16.748;2023-05-12T08:51:14;100471.86;;;22.68;35.58
72096;BME280;59968;51.084;16.748;2023-05-12T08:53:43;100474.73;;;22.72;36.21
72096;BME280;59968;51.084;16.748;2023-05-12T08:56:16;100468.49;;;22.80;36.11
72096;BME280;59968;51.084;16.748;2023-05-12T08:58:50;100473.50;;;22.89;35.75
72096;BME280;59968;51.084;16.748;2023-05-12T09:01:19;100472.34;;;22.95;36.10
72096;BME280;59968;51.084;16.748;2023-05-12T09:03:50;100472.86;;;23.02;35.83
72096;BME280;59968;51.084;16.748;2023-05-12T09:06:20;100467.34;;;23.10;35.42
72096;BME280;59968;51.084;16.748;2023-05-12T09:08:50;100467.58;;;23.20;35.19
72096;BME280;59968;51.084;16.748;2023-05-12T09:11:19;100464.03;;;23.28;34.58
72096;BME280;59968;51.084;16.748;2023-05-12T09:14:05;100461.02;;;23.28;34.28
72096;BME280;59968;51.084;16.748;2023-05-12T09:16:39;100465.99;;;23.40;34.40
72096;BME280;59968;51.084;16.748;2023-05-12T09:19:08;100465.16;;;23.50;34.09
72096;BME280;59968;51.084;16.748;2023-05-12T09:21:37;100461.79;;;23.62;33.53
72096;BME280;59968;51.084;16.748;2023-05-12T09:24:06;100464.40;;;23.72;33.83
72096;BME280;59968;51.084;16.748;2023-05-12T09:26:51;100466.10;;;23.83;33.92
72096;BME280;59968;51.084;16.748;2023-05-12T09:29:20;100465.52;;;23.90;33.08
72096;BME280;59968;51.084;16.748;2023-05-12T09:32:00;100461.91;;;23.93;32.94
72096;BME280;59968;51.084;16.748;2023-05-12T09:34:34;100454.55;;;23.91;32.51
72096;BME280;59968;51.084;16.748;2023-05-12T09:37:06;100453.66;;;23.91;33.11
72096;BME280;59968;51.084;16.748;2023-05-12T09:39:35;100453.54;;;23.94;32.67
72096;BME280;59968;51.084;16.748;2023-05-12T09:42:10;100453.15;;;23.98;32.73
72096;BME280;59968;51.084;16.748;2023-05-12T09:44:40;100452.13;;;24.01;32.27
72096;BME280;59968;51.084;16.748;2023-05-12T09:47:10;100450.41;;;24.04;32.40
72096;BME280;59968;51.084;16.748;2023-05-12T09:49:45;100451.35;;;24.07;32.57
72096;BME280;59968;51.084;16.748;2023-05-12T09:52:13;100446.91;;;24.08;32.20
72096;BME280;59968;51.084;16.748;2023-05-12T09:54:42;100448.03;;;24.09;32.36
72096;BME280;59968;51.084;16.748;2023-05-12T09:57:12;100444.20;;;24.09;32.73
72096;BME280;59968;51.084;16.748;2023-05-12T09:59:43;100438.54;;;24.17;32.27
72096;BME280;59968;51.084;16.748;2023-05-12T10:02:13;100436.03;;;24.27;31.76
72096;BME280;59968;51.084;16.748;2023-05-12T10:04:51;100437.81;;;24.40;31.78
72096;BME280;59968;51.084;16.748;2023-05-12T10:07:21;100436.12;;;24.52;32.01
72096;BME280;59968;51.084;16.748;2023-05-12T10:09:54;100429.39;;;24.59;31.59
72096;BME280;59968;51.084;16.748;2023-05-12T10:12:26;100432.04;;;24.58;31.83
72096;BME280;59968;51.084;16.748;2023-05-12T10:14:55;100422.13;;;24.60;32.33
72096;BME280;59968;51.084;16.748;2023-05-12T10:17:24;100422.79;;;24.75;31.43
72096;BME280;59968;51.084;16.748;2023-05-12T10:19:54;100424.64;;;24.74;30.99
72096;BME280;59968;51.084;16.748;2023-05-12T10:22:23;100419.48;;;24.77;31.43
72096;BME280;59968;51.084;16.748;2023-05-12T10:24:54;100421.11;;;24.86;31.04
72096;BME280;59968;51.084;16.748;2023-05-12T10:27:25;100415.30;;;24.93;30.35
72096;BME280;59968;51.084;16.748;2023-05-12T10:29:55;100415.50;;;24.96;30.69
72096;BME280;59968;51.084;16.748;2023-05-12T10:32:24;100414.19;;;25.00;30.56
72096;BME280;59968;51.084;16.748;2023-05-12T10:34:54;100412.94;;;25.07;30.82
72096;BME280;59968;51.084;16.748;2023-05-12T10:37:23;100409.66;;;25.16;30.57
72096;BME280;59968;51.084;16.748;2023-05-12T10:40:07;100410.71;;;25.17;29.76
72096;BME280;59968;51.084;16.748;2023-05-12T10:42:37;100412.80;;;25.10;29.76
72096;BME280;59968;51.084;16.748;2023-05-12T10:45:14;100415.95;;;25.09;30.88
72096;BME280;59968;51.084;16.748;2023-05-12T10:47:45;100413.32;;;25.12;30.27
72096;BME280;59968;51.084;16.748;2023-05-12T10:50:25;100411.44;;;25.14;29.18
72096;BME280;59968;51.084;16.748;2023-05-12T10:52:54;100408.89;;;25.17;29.13
72096;BME280;59968;51.084;16.748;2023-05-12T10:55:35;100410.15;;;25.24;30.14
72096;BME280;59968;51.084;16.748;2023-05-12T10:58:11;100411.05;;;25.34;29.48
72096;BME280;59968;51.084;16.748;2023-05-12T11:00:48;100407.33;;;25.39;29.09
72096;BME280;59968;51.084;16.748;2023-05-12T11:03:23;100405.23;;;25.41;28.97
72096;BME280;59968;51.084;16.748;2023-05-12T11:06:01;100401.67;;;25.32;28.66
72096;BME280;59968;51.084;16.748;2023-05-12T11:08:31;100409.77;;;25.21;29.01
72096;BME280;59968;51.084;16.748;2023-05-12T11:11:03;100415.73;;;25.13;28.26
72096;BME280;59968;51.084;16.748;2023-05-12T11:13:34;100409.47;;;25.00;28.35
72096;BME280;59968;51.084;16.748;2023-05-12T11:16:03;100407.55;;;24.98;28.70
72096;BME280;59968;51.084;16.748;2023-05-12T11:18:31;100414.32;;;25.02;28.60
72096;BME280;59968;51.084;16.748;2023-05-12T11:21:08;100406.81;;;25.04;29.21
72096;BME280;59968;51.084;16.748;2023-05-12T11:23:37;100412.90;;;25.10;29.29
72096;BME280;59968;51.084;16.748;2023-05-12T11:26:16;100410.04;;;25.16;28.54
72096;BME280;59968;51.084;16.748;2023-05-12T11:28:46;100409.00;;;25.27;29.17
72096;BME280;59968;51.084;16.748;2023-05-12T11:31:19;100405.37;;;25.43;28.16
72096;BME280;59968;51.084;16.748;2023-05-12T11:33:48;100408.35;;;25.48;26.79
72096;BME280;59968;51.084;16.748;2023-05-12T11:36:36;100407.95;;;25.40;26.34
72096;BME280;59968;51.084;16.748;2023-05-12T11:39:05;100412.42;;;25.25;26.53
72096;BME280;59968;51.084;16.748;2023-05-12T11:41:34;100411.57;;;25.16;27.25
72096;BME280;59968;51.084;16.748;2023-05-12T11:44:20;100415.15;;;25.24;27.47
72096;BME280;59968;51.084;16.748;2023-05-12T11:47:00;100412.52;;;25.40;27.75
72096;BME280;59968;51.084;16.748;2023-05-12T11:49:30;100414.89;;;25.48;27.25
72096;BME280;59968;51.084;16.748;2023-05-12T11:52:00;100417.39;;;25.43;26.50
72096;BME280;59968;51.084;16.748;2023-05-12T11:54:30;100416.14;;;25.34;27.11
72096;BME280;59968;51.084;16.748;2023-05-12T11:56:59;100418.78;;;25.41;27.19
72096;BME280;59968;51.084;16.748;2023-05-12T11:59:33;100419.97;;;25.53;27.20
72096;BME280;59968;51.084;16.748;2023-05-12T12:02:02;100415.46;;;25.70;27.42
72096;BME280;59968;51.084;16.748;2023-05-12T12:04:36;100420.73;;;25.86;28.08
72096;BME280;59968;51.084;16.748;2023-05-12T12:07:08;100415.70;;;26.02;27.87
72096;BME280;59968;51.084;16.748;2023-05-12T12:09:38;100416.52;;;26.14;27.56
72096;BME280;59968;51.084;16.748;2023-05-12T12:12:10;100421.36;;;26.17;27.77
72096;BME280;59968;51.084;16.748;2023-05-12T12:14:39;100418.56;;;26.23;27.80
72096;BME280;59968;51.084;16.748;2023-05-12T12:17:09;100416.67;;;26.28;27.42
72096;BME280;59968;51.084;16.748;2023-05-12T12:19:38;100418.84;;;26.26;27.60
72096;BME280;59968;51.084;16.748;2023-05-12T12:22:07;100419.52;;;26.12;27.62
72096;BME280;59968;51.084;16.748;2023-05-12T12:24:36;100420.88;;;26.01;28.29
72096;BME280;59968;51.084;16.748;2023-05-12T12:27:06;100424.52;;;26.04;28.90
72096;BME280;59968;51.084;16.748;2023-05-12T12:29:36;100422.59;;;26.08;28.56
72096;BME280;59968;51.084;16.748;2023-05-12T12:32:06;100422.77;;;26.16;28.05
72096;BME280;59968;51.084;16.748;2023-05-12T13:39:10;100406.10;;;24.80;30.70
72096;BME280;59968;51.084;16.748;2023-05-12T13:41:40;100407.45;;;24.76;30.33
72096;BME280;59968;51.084;16.748;2023-05-12T13:44:09;100404.72;;;24.71;29.97
72096;BME280;59968;51.084;16.748;2023-05-12T13:57:10;100388.61;;;25.08;28.94
72096;BME280;59968;51.084;16.748;2023-05-12T13:59:40;100393.33;;;25.05;29.02
72096;BME280;59968;51.084;16.748;2023-05-12T14:02:10;100398.22;;;24.99;29.20
72096;BME280;59968;51.084;16.748;2023-05-12T14:04:41;100397.39;;;24.90;29.18
72096;BME280;59968;51.084;16.748;2023-05-12T14:07:10;100405.09;;;24.91;29.16
72096;BME280;59968;51.084;16.748;2023-05-12T14:09:40;100396.58;;;24.82;28.97
72096;BME280;59968;51.084;16.748;2023-05-12T14:12:10;100401.61;;;24.77;28.96
72096;BME280;59968;51.084;16.748;2023-05-12T14:14:40;100398.90;;;24.75;29.03
72096;BME280;59968;51.084;16.748;2023-05-12T14:17:15;100398.95;;;24.74;29.38
72096;BME280;59968;51.084;16.748;2023-05-12T14:19:46;100398.16;;;24.69;28.94
72096;BME280;59968;51.084;16.748;2023-05-12T14:22:14;100403.37;;;24.62;28.85